Time;durP1;ratioP1;P1;durP2;ratioP2;P2;SDS_P1;SDS_P2;PMS_P1;PMS_P2;Temp;Humidity;BMP_temperature;BMP_pressure;BME280_temperature;BME280_humidity;BME280_pressure;Samples;Min_cycle;Max_cycle;Signal;HPM_P1;HPM_P2
2023/10/25 00:02:16;;;;;;;59.20;16.48;;;;;;;;;;4974511;28;20261;-63
2023/10/25 00:04:44;;;;;;;48.22;17.65;;;;;;;;;;4974515;28;20258;-62
2023/10/25 00:07:13;;;;;;;47.28;16.58;;;;;;;;;;4974672;28;20241;-64
2023/10/25 00:09:43;;;;;;;39.50;17.13;;;;;;;;;;4975388;28;20593;-62
2023/10/25 00:12:11;;;;;;;36.55;17.15;;;;;;;;;;4975211;28;20207;-63
2023/10/25 00:14:39;;;;;;;29.63;18.95;;;;;;;;;;4979259;28;20217;-63
2023/10/25 00:17:07;;;;;;;31.50;19.13;;;;;;;;;;4978628;28;20211;-63
2023/10/25 00:19:36;;;;;;;33.70;21.42;;;;;;;;;;4979661;28;20692;-63
2023/10/25 00:22:04;;;;;;;32.72;21.35;;;;;;;;;;4979934;28;20207;-63
2023/10/25 00:24:33;;;;;;;38.15;24.80;;;;;;;;;;4979678;28;20234;-63
2023/10/25 00:27:02;;;;;;;32.58;22.23;;;;;;;;;;4978823;28;20211;-63
2023/10/25 00:29:30;;;;;;;28.75;21.52;;;;;;;;;;4979111;28;20254;-63
2023/10/25 00:31:59;;;;;;;55.33;23.00;;;;;;;;;;4977295;28;20213;-63
2023/10/25 00:34:27;;;;;;;37.90;22.83;;;;;;;;;;4979080;28;20229;-63
2023/10/25 00:36:55;;;;;;;61.25;25.27;;;;;;;;;;4978941;28;20211;-63
2023/10/25 00:39:24;;;;;;;86.25;25.35;;;;;;;;;;4977602;28;20222;-63
2023/10/25 00:41:52;;;;;;;56.33;23.60;;;;;;;;;;4978827;28;20214;-63
2023/10/25 00:44:21;;;;;;;94.57;24.27;;;;;;;;;;4977842;28;20272;-63
2023/10/25 00:46:50;;;;;;;206.35;28.33;;;;;;;;;;4978713;28;20203;-63
2023/10/25 00:49:18;;;;;;;88.38;25.10;;;;;;;;;;4978756;28;20226;-63
2023/10/25 00:51:48;;;;;;;67.15;23.85;;;;;;;;;;4972736;28;20235;-63
2023/10/25 00:54:17;;;;;;;140.43;25.50;;;;;;;;;;4978857;28;20214;-63
2023/10/25 00:56:47;;;;;;;121.93;25.05;;;;;;;;;;4978166;28;20207;-63
2023/10/25 00:59:16;;;;;;;155.18;23.95;;;;;;;;;;4977126;28;20214;-63
2023/10/25 01:01:47;;;;;;;85.78;24.20;;;;;;;;;;4977767;28;20567;-63
2023/10/25 01:04:15;;;;;;;145.73;24.95;;;;;;;;;;4978528;28;20188;-63
2023/10/25 01:06:44;;;;;;;109.85;25.50;;;;;;;;;;4978328;28;20211;-63
2023/10/25 01:09:12;;;;;;;100.82;26.80;;;;;;;;;;4978577;28;20577;-63
2023/10/25 01:11:41;;;;;;;116.78;26.73;;;;;;;;;;4978458;28;20224;-62
2023/10/25 01:14:09;;;;;;;85.20;26.20;;;;;;;;;;4977583;28;20558;-62
2023/10/25 01:16:38;;;;;;;73.63;24.08;;;;;;;;;;4978166;28;20200;-63
2023/10/25 01:19:08;;;;;;;48.85;22.75;;;;;;;;;;4977802;28;20199;-64
2023/10/25 01:21:36;;;;;;;114.07;26.25;;;;;;;;;;4977682;28;20592;-65
2023/10/25 01:24:06;;;;;;;92.53;26.95;;;;;;;;;;4978204;28;20263;-62
2023/10/25 01:26:35;;;;;;;103.85;26.15;;;;;;;;;;4978830;28;20203;-63
2023/10/25 01:29:03;;;;;;;98.53;25.50;;;;;;;;;;4977902;28;20199;-62
2023/10/25 01:31:32;;;;;;;75.15;25.70;;;;;;;;;;4978145;28;20301;-61
2023/10/25 01:34:00;;;;;;;112.68;27.02;;;;;;;;;;4978099;28;20210;-63
2023/10/25 01:36:28;;;;;;;83.43;25.52;;;;;;;;;;4978021;28;20211;-63
2023/10/25 01:38:56;;;;;;;51.08;24.52;;;;;;;;;;4977631;28;20210;-64
2023/10/25 01:41:26;;;;;;;56.95;24.15;;;;;;;;;;4977465;28;20504;-64
2023/10/25 01:43:54;;;;;;;41.90;22.98;;;;;;;;;;4975726;28;20234;-63
2023/10/25 01:46:23;;;;;;;30.20;21.73;;;;;;;;;;4967858;28;20215;-64
2023/10/25 01:48:51;;;;;;;40.17;20.65;;;;;;;;;;4973126;28;20215;-63
2023/10/25 01:51:19;;;;;;;34.70;21.65;;;;;;;;;;4972445;28;20235;-64
2023/10/25 01:53:47;;;;;;;41.92;22.00;;;;;;;;;;4977507;28;20271;-64
2023/10/25 01:56:16;;;;;;;37.80;21.27;;;;;;;;;;4977558;28;20228;-63
2023/10/25 01:58:45;;;;;;;54.25;22.13;;;;;;;;;;4976194;28;20203;-64
2023/10/25 02:01:13;;;;;;;73.05;25.15;;;;;;;;;;4976178;28;20209;-63
2023/10/25 02:03:42;;;;;;;68.93;23.08;;;;;;;;;;4976038;28;20219;-63
2023/10/25 02:06:14;;;;;;;98.78;25.10;;;;;;;;;;4976996;28;20207;-63
2023/10/25 02:08:42;;;;;;;123.57;24.95;;;;;;;;;;4977138;28;20618;-63
2023/10/25 02:11:10;;;;;;;88.03;24.38;;;;;;;;;;4976966;28;20227;-63
2023/10/25 02:13:39;;;;;;;51.63;24.10;;;;;;;;;;4977132;28;20199;-63
2023/10/25 02:16:16;;;;;;;57.53;22.75;;;;;;;;;;4976364;28;20663;-63
2023/10/25 02:18:45;;;;;;;62.85;23.48;;;;;;;;;;4977620;28;20191;-63
2023/10/25 02:21:14;;;;;;;60.42;24.92;;;;;;;;;;4976773;28;20741;-64
2023/10/25 02:23:42;;;;;;;46.17;21.33;;;;;;;;;;4976296;28;20206;-63
2023/10/25 02:26:10;;;;;;;35.65;21.13;;;;;;;;;;4976852;28;20287;-63
2023/10/25 02:28:38;;;;;;;52.08;22.05;;;;;;;;;;4977218;28;20203;-63
2023/10/25 02:31:06;;;;;;;42.42;22.83;;;;;;;;;;4974804;28;20227;-63
2023/10/25 02:33:36;;;;;;;241.52;26.65;;;;;;;;;;4977188;28;20261;-63
2023/10/25 02:36:05;;;;;;;115.25;25.27;;;;;;;;;;4976055;28;20218;-63
2023/10/25 02:38:33;;;;;;;126.57;24.27;;;;;;;;;;4976950;28;20203;-63
2023/10/25 02:41:01;;;;;;;117.07;24.23;;;;;;;;;;4976555;28;20211;-63
2023/10/25 02:43:30;;;;;;;206.48;26.27;;;;;;;;;;4976290;28;20215;-63
2023/10/25 02:46:02;;;;;;;267.45;26.88;;;;;;;;;;4975913;28;20208;-63
2023/10/25 02:48:30;;;;;;;241.82;26.05;;;;;;;;;;4976917;28;20198;-63
2023/10/25 02:51:01;;;;;;;239.45;30.83;;;;;;;;;;4976426;28;20261;-63
2023/10/25 02:53:29;;;;;;;194.95;26.35;;;;;;;;;;4976601;28;20342;-63
2023/10/25 02:56:01;;;;;;;174.95;26.45;;;;;;;;;;4976376;28;20643;-63
2023/10/25 02:58:29;;;;;;;222.45;26.73;;;;;;;;;;4974990;28;20205;-63
2023/10/25 03:00:58;;;;;;;188.02;26.70;;;;;;;;;;4976160;28;20200;-63
2023/10/25 03:03:28;;;;;;;212.32;27.00;;;;;;;;;;4971269;28;20218;-63
2023/10/25 03:05:56;;;;;;;205.93;26.98;;;;;;;;;;4969398;28;20211;-64
2023/10/25 03:08:27;;;;;;;217.93;28.02;;;;;;;;;;4976585;28;20207;-63
2023/10/25 03:10:55;;;;;;;202.13;28.55;;;;;;;;;;4975824;28;20551;-63
2023/10/25 03:13:23;;;;;;;235.07;26.92;;;;;;;;;;4976371;28;20191;-63
2023/10/25 03:15:52;;;;;;;125.15;25.40;;;;;;;;;;4975682;28;20213;-65
2023/10/25 03:18:20;;;;;;;159.73;30.60;;;;;;;;;;4972258;28;20242;-65
2023/10/25 03:20:48;;;;;;;193.23;34.67;;;;;;;;;;4972948;28;20583;-65
2023/10/25 03:23:16;;;;;;;149.02;26.33;;;;;;;;;;4972636;28;20215;-65
2023/10/25 03:25:46;;;;;;;159.00;26.67;;;;;;;;;;4972647;28;20211;-65
2023/10/25 03:28:14;;;;;;;106.53;24.15;;;;;;;;;;4972379;28;20207;-65
2023/10/25 03:30:42;;;;;;;231.75;31.20;;;;;;;;;;4972326;28;20257;-65
2023/10/25 03:33:11;;;;;;;205.02;27.48;;;;;;;;;;4957152;28;20204;-64
2023/10/25 03:35:39;;;;;;;95.78;24.10;;;;;;;;;;4959217;28;20841;-69
2023/10/25 03:38:07;;;;;;;109.10;22.52;;;;;;;;;;4981306;28;20680;-68
2023/10/25 03:40:36;;;;;;;84.32;22.90;;;;;;;;;;4981944;28;20262;-64
2023/10/25 03:43:06;;;;;;;91.30;21.83;;;;;;;;;;4982122;28;20279;-69
2023/10/25 03:45:34;;;;;;;60.85;19.48;;;;;;;;;;4972840;28;20267;-65
2023/10/25 03:48:03;;;;;;;83.10;23.98;;;;;;;;;;4968240;28;20204;-64
2023/10/25 03:50:31;;;;;;;97.20;24.08;;;;;;;;;;4955395;28;20218;-65
2023/10/25 03:53:00;;;;;;;105.50;23.20;;;;;;;;;;4967355;28;20231;-65
2023/10/25 03:55:28;;;;;;;111.85;23.02;;;;;;;;;;4960256;28;20269;-65
2023/10/25 03:57:56;;;;;;;93.43;23.45;;;;;;;;;;4972282;28;20222;-65
2023/10/25 04:00:26;;;;;;;81.72;21.15;;;;;;;;;;4971981;28;20203;-65
2023/10/25 04:02:55;;;;;;;77.80;22.30;;;;;;;;;;4959191;28;20192;-65
2023/10/25 04:05:23;;;;;;;98.65;23.20;;;;;;;;;;4952523;28;20207;-65
2023/10/25 04:07:52;;;;;;;118.45;23.77;;;;;;;;;;4971852;28;20689;-65
2023/10/25 04:10:20;;;;;;;82.70;22.10;;;;;;;;;;4972260;28;20217;-65
2023/10/25 04:12:49;;;;;;;111.10;23.30;;;;;;;;;;4972098;28;20720;-65
2023/10/25 04:15:17;;;;;;;70.05;22.40;;;;;;;;;;4971792;28;20238;-65
2023/10/25 04:17:47;;;;;;;93.50;22.02;;;;;;;;;;4972665;28;20211;-65
2023/10/25 04:20:15;;;;;;;77.30;21.92;;;;;;;;;;4971890;28;20693;-65
2023/10/25 04:22:43;;;;;;;64.43;22.80;;;;;;;;;;4972483;28;20199;-65
2023/10/25 04:25:12;;;;;;;111.07;25.38;;;;;;;;;;4971864;28;20200;-65
2023/10/25 04:27:40;;;;;;;69.88;26.15;;;;;;;;;;4972245;28;20203;-65
2023/10/25 04:30:09;;;;;;;91.10;24.00;;;;;;;;;;4972448;28;20702;-65
2023/10/25 04:32:38;;;;;;;194.63;30.95;;;;;;;;;;4971939;28;20593;-65
2023/10/25 04:35:07;;;;;;;77.28;23.88;;;;;;;;;;4971813;28;20226;-65
2023/10/25 04:37:35;;;;;;;136.25;26.38;;;;;;;;;;4956078;28;20266;-65
2023/10/25 04:40:04;;;;;;;113.00;24.13;;;;;;;;;;4958828;28;20199;-65
2023/10/25 04:42:33;;;;;;;112.38;25.15;;;;;;;;;;4972131;28;20199;-65
2023/10/25 04:45:01;;;;;;;85.05;23.27;;;;;;;;;;4971944;28;20210;-65
2023/10/25 04:47:31;;;;;;;109.88;24.20;;;;;;;;;;4972238;28;20203;-65
2023/10/25 04:50:03;;;;;;;126.85;23.80;;;;;;;;;;4972075;28;20195;-65
2023/10/25 04:52:33;;;;;;;141.02;25.40;;;;;;;;;;4970661;28;20272;-65
2023/10/25 04:55:01;;;;;;;104.63;22.08;;;;;;;;;;4972397;28;20556;-63
2023/10/25 04:57:31;;;;;;;110.07;20.60;;;;;;;;;;4971251;28;20196;-65
2023/10/25 04:59:59;;;;;;;163.38;26.05;;;;;;;;;;4972894;28;20602;-65
2023/10/25 05:02:27;;;;;;;89.28;19.65;;;;;;;;;;4973646;28;20191;-65
2023/10/25 05:04:56;;;;;;;85.30;21.33;;;;;;;;;;4974614;28;20563;-65
2023/10/25 05:07:24;;;;;;;79.20;20.20;;;;;;;;;;4973516;28;20664;-65
2023/10/25 05:09:54;;;;;;;115.65;17.23;;;;;;;;;;4975296;28;20209;-65
2023/10/25 05:12:26;;;;;;;114.35;18.67;;;;;;;;;;4973934;28;20211;-64
2023/10/25 05:14:54;;;;;;;135.60;20.08;;;;;;;;;;4974869;28;20198;-64
2023/10/25 05:17:23;;;;;;;44.25;15.23;;;;;;;;;;4973372;28;20207;-64
2023/10/25 05:19:51;;;;;;;120.72;19.70;;;;;;;;;;4974053;28;20242;-64
2023/10/25 05:22:22;;;;;;;182.73;18.95;;;;;;;;;;4974050;28;20195;-65
2023/10/25 05:24:50;;;;;;;192.05;19.88;;;;;;;;;;4974882;28;20200;-65
2023/10/25 05:27:20;;;;;;;117.88;17.67;;;;;;;;;;4972086;28;20567;-64
2023/10/25 05:29:49;;;;;;;98.18;16.40;;;;;;;;;;4966289;28;20204;-65
2023/10/25 05:32:19;;;;;;;143.35;17.38;;;;;;;;;;4966139;28;20216;-65
2023/10/25 05:34:48;;;;;;;198.55;17.23;;;;;;;;;;4973395;28;20205;-64
2023/10/25 05:37:16;;;;;;;191.65;16.77;;;;;;;;;;4973626;28;20215;-64
2023/10/25 05:39:45;;;;;;;227.80;22.08;;;;;;;;;;4970855;28;20204;-64
2023/10/25 05:42:19;;;;;;;91.35;16.10;;;;;;;;;;4970874;28;20196;-64
2023/10/25 05:44:51;;;;;;;149.82;17.70;;;;;;;;;;4970370;28;20257;-65
2023/10/25 05:47:19;;;;;;;133.40;16.98;;;;;;;;;;4971132;28;20195;-65
2023/10/25 05:49:48;;;;;;;158.82;17.30;;;;;;;;;;4971456;28;20245;-64
2023/10/25 05:52:16;;;;;;;185.02;19.60;;;;;;;;;;4971307;28;20235;-64
2023/10/25 05:54:44;;;;;;;143.82;18.55;;;;;;;;;;4974578;28;20206;-64
2023/10/25 05:57:13;;;;;;;143.98;25.23;;;;;;;;;;4971443;28;20297;-64
2023/10/25 05:59:42;;;;;;;181.90;27.83;;;;;;;;;;4974346;28;20211;-64
2023/10/25 06:02:12;;;;;;;94.40;19.40;;;;;;;;;;4972471;28;20674;-64
2023/10/25 06:04:41;;;;;;;57.03;16.95;;;;;;;;;;4974302;28;20191;-63
2023/10/25 06:07:10;;;;;;;98.55;15.90;;;;;;;;;;4973560;28;20233;-63
2023/10/25 06:09:38;;;;;;;81.13;15.27;;;;;;;;;;4973046;28;20265;-63
2023/10/25 06:12:07;;;;;;;127.57;17.35;;;;;;;;;;4972228;28;20211;-65
2023/10/25 06:14:36;;;;;;;55.58;14.80;;;;;;;;;;4974144;28;20587;-64
2023/10/25 06:17:04;;;;;;;107.90;14.95;;;;;;;;;;4973870;28;20207;-64
2023/10/25 06:19:34;;;;;;;91.00;14.48;;;;;;;;;;4974417;28;20211;-63
2023/10/25 06:22:02;;;;;;;110.43;13.93;;;;;;;;;;4973526;28;20211;-64
2023/10/25 06:24:30;;;;;;;79.75;14.98;;;;;;;;;;4973935;28;20209;-63
2023/10/25 06:26:58;;;;;;;75.07;15.90;;;;;;;;;;4972693;28;20693;-63
2023/10/25 06:29:26;;;;;;;61.35;15.48;;;;;;;;;;4973485;28;20215;-63
2023/10/25 06:31:55;;;;;;;139.00;15.55;;;;;;;;;;4973130;28;20101;-63
2023/10/25 06:34:23;;;;;;;51.75;13.10;;;;;;;;;;4972379;28;20227;-63
2023/10/25 06:36:53;;;;;;;151.98;16.77;;;;;;;;;;4973137;28;20211;-63
2023/10/25 06:39:21;;;;;;;119.47;14.85;;;;;;;;;;4973877;28;20257;-64
2023/10/25 06:41:50;;;;;;;164.85;16.63;;;;;;;;;;4973063;28;20237;-65
2023/10/25 06:44:18;;;;;;;189.07;16.70;;;;;;;;;;4964601;28;20219;-64
2023/10/25 06:46:47;;;;;;;226.25;20.60;;;;;;;;;;4953887;28;20635;-64
2023/10/25 06:49:15;;;;;;;61.75;14.38;;;;;;;;;;4953695;29;20555;-64
2023/10/25 06:51:44;;;;;;;92.38;16.85;;;;;;;;;;4955112;28;20335;-63
2023/10/25 06:54:14;;;;;;;67.80;16.65;;;;;;;;;;4972105;28;20233;-63
2023/10/25 06:56:43;;;;;;;59.90;14.95;;;;;;;;;;4971277;28;20643;-64
2023/10/25 06:59:11;;;;;;;48.75;13.40;;;;;;;;;;4973330;28;20199;-64
2023/10/25 07:01:43;;;;;;;83.10;16.23;;;;;;;;;;4972297;28;20563;-63
2023/10/25 07:04:14;;;;;;;47.05;13.35;;;;;;;;;;4971066;28;20575;-63
2023/10/25 07:06:46;;;;;;;83.57;13.18;;;;;;;;;;4972702;28;20549;-64
2023/10/25 07:09:16;;;;;;;52.38;11.70;;;;;;;;;;4972984;28;20591;-64
2023/10/25 07:11:44;;;;;;;94.15;14.13;;;;;;;;;;4972551;28;20226;-64
2023/10/25 07:14:12;;;;;;;77.30;13.85;;;;;;;;;;4972870;28;20242;-64
2023/10/25 07:16:41;;;;;;;76.03;13.90;;;;;;;;;;4973187;28;20215;-63
2023/10/25 07:19:09;;;;;;;57.78;11.38;;;;;;;;;;4972868;28;20207;-64
2023/10/25 07:21:38;;;;;;;45.22;10.45;;;;;;;;;;4972181;28;20624;-64
2023/10/25 07:24:06;;;;;;;41.38;10.88;;;;;;;;;;4973216;28;20203;-64
2023/10/25 07:26:36;;;;;;;22.95;10.77;;;;;;;;;;4972209;28;20579;-64
2023/10/25 07:29:04;;;;;;;30.80;11.10;;;;;;;;;;4972961;28;20207;-64
2023/10/25 07:31:33;;;;;;;23.70;12.40;;;;;;;;;;4970975;28;20209;-64
2023/10/25 07:34:01;;;;;;;20.42;11.32;;;;;;;;;;4972891;28;20231;-63
2023/10/25 07:36:31;;;;;;;24.83;11.27;;;;;;;;;;4972622;28;20207;-63
2023/10/25 07:39:00;;;;;;;20.85;11.93;;;;;;;;;;4972173;28;20210;-65
2023/10/25 07:41:28;;;;;;;15.70;10.00;;;;;;;;;;4972430;28;20213;-64
2023/10/25 07:43:58;;;;;;;12.40;10.18;;;;;;;;;;4971552;28;20238;-64
2023/10/25 07:46:26;;;;;;;12.68;9.00;;;;;;;;;;4966933;28;20208;-64
2023/10/25 07:48:54;;;;;;;12.35;9.55;;;;;;;;;;4958484;28;20584;-65
2023/10/25 07:51:22;;;;;;;11.43;10.20;;;;;;;;;;4960774;28;20215;-63
2023/10/25 07:53:51;;;;;;;10.63;9.48;;;;;;;;;;4959087;28;20686;-63
2023/10/25 07:56:19;;;;;;;12.55;10.48;;;;;;;;;;4953216;28;20204;-64
2023/10/25 07:58:47;;;;;;;13.02;10.98;;;;;;;;;;4953180;28;20258;-64
2023/10/25 08:01:17;;;;;;;10.70;9.60;;;;;;;;;;4957347;28;20206;-64
2023/10/25 08:03:45;;;;;;;11.27;10.18;;;;;;;;;;4971211;28;20566;-63
2023/10/25 08:06:13;;;;;;;12.25;9.52;;;;;;;;;;4971986;28;20221;-63
2023/10/25 08:08:41;;;;;;;10.65;9.52;;;;;;;;;;4972411;28;20215;-64
2023/10/25 08:11:10;;;;;;;9.90;8.80;;;;;;;;;;4968008;28;20207;-63
2023/10/25 08:13:40;;;;;;;10.25;8.48;;;;;;;;;;4970795;28;20227;-63
2023/10/25 08:16:08;;;;;;;17.17;8.60;;;;;;;;;;4972741;28;20565;-64
2023/10/25 08:18:38;;;;;;;8.85;7.95;;;;;;;;;;4966976;28;20581;-63
2023/10/25 08:21:06;;;;;;;9.00;8.20;;;;;;;;;;4971920;28;20245;-64
2023/10/25 08:23:34;;;;;;;10.10;8.70;;;;;;;;;;4971925;28;20676;-64
2023/10/25 08:26:04;;;;;;;8.07;7.40;;;;;;;;;;4972900;28;20633;-64
2023/10/25 08:28:32;;;;;;;7.82;7.15;;;;;;;;;;4972083;28;20625;-64
2023/10/25 08:31:00;;;;;;;7.43;6.80;;;;;;;;;;4972036;28;20274;-63
2023/10/25 08:33:28;;;;;;;8.43;7.70;;;;;;;;;;4972610;28;20979;-63
2023/10/25 08:36:04;;;;;;;8.90;8.00;;;;;;;;;;4976401;28;20623;-64
2023/10/25 08:38:32;;;;;;;10.00;8.87;;;;;;;;;;4975818;28;20933;-64
2023/10/25 08:41:04;;;;;;;7.40;6.80;;;;;;;;;;4976207;28;20615;-64
2023/10/25 08:43:33;;;;;;;9.67;7.90;;;;;;;;;;4975406;28;20621;-64
2023/10/25 08:46:03;;;;;;;8.33;7.47;;;;;;;;;;4973151;28;20646;-64
2023/10/25 08:48:31;;;;;;;11.20;9.57;;;;;;;;;;4974537;28;20613;-64
2023/10/25 08:51:00;;;;;;;9.83;8.70;;;;;;;;;;4974875;28;20593;-64
2023/10/25 08:53:31;;;;;;;9.13;7.53;;;;;;;;;;4967509;28;20701;-62
2023/10/25 08:56:00;;;;;;;16.10;11.73;;;;;;;;;;4962464;28;20618;-63
2023/10/25 08:58:28;;;;;;;7.30;6.60;;;;;;;;;;4975276;28;20604;-62
2023/10/25 09:00:56;;;;;;;6.97;6.37;;;;;;;;;;4975087;28;20621;-63
2023/10/25 09:03:43;;;;;;;7.60;6.97;;;;;;;;;;4974019;28;20636;-64
2023/10/25 09:06:12;;;;;;;7.80;6.80;;;;;;;;;;4974198;28;20590;-63
2023/10/25 09:08:43;;;;;;;8.60;6.43;;;;;;;;;;4974672;28;20630;-64
2023/10/25 09:11:11;;;;;;;7.30;6.70;;;;;;;;;;4975612;28;20595;-63
2023/10/25 09:13:42;;;;;;;9.53;6.57;;;;;;;;;;4974856;28;20618;-63
2023/10/25 09:16:11;;;;;;;6.57;6.07;;;;;;;;;;4973905;28;20599;-63
2023/10/25 09:18:40;;;;;;;6.50;6.00;;;;;;;;;;4974514;28;20641;-64
2023/10/25 09:21:10;;;;;;;6.40;5.90;;;;;;;;;;4975197;28;20601;-63
2023/10/25 09:23:39;;;;;;;6.27;5.83;;;;;;;;;;4974930;28;20202;-63
2023/10/25 09:26:15;;;;;;;7.30;6.70;;;;;;;;;;4974169;28;20619;-64
2023/10/25 09:28:45;;;;;;;6.97;6.45;;;;;;;;;;4974634;28;20983;-64
2023/10/25 09:31:22;;;;;;;7.47;6.87;;;;;;;;;;4974811;28;20217;-64
2023/10/25 09:33:51;;;;;;;6.00;5.40;;;;;;;;;;4974507;28;21179;-64
2023/10/25 09:36:20;;;;;;;7.20;6.60;;;;;;;;;;4974520;28;20976;-64
2023/10/25 09:38:49;;;;;;;6.57;6.00;;;;;;;;;;4974721;28;20630;-65
2023/10/25 09:41:20;;;;;;;6.93;6.33;;;;;;;;;;4972533;28;20611;-65
2023/10/25 09:43:49;;;;;;;6.53;6.13;;;;;;;;;;4974649;28;20748;-65
2023/10/25 09:46:17;;;;;;;9.90;9.00;;;;;;;;;;4960156;28;20643;-64
2023/10/25 09:48:56;;;;;;;7.83;7.20;;;;;;;;;;4971395;28;20608;-64
2023/10/25 09:51:32;;;;;;;7.57;6.70;;;;;;;;;;4955674;28;20584;-64
2023/10/25 09:54:03;;;;;;;7.50;6.80;;;;;;;;;;4962003;28;20606;-64
2023/10/25 09:56:33;;;;;;;6.73;6.23;;;;;;;;;;4974775;28;20561;-64
2023/10/25 09:59:02;;;;;;;7.63;6.93;;;;;;;;;;4975131;28;20590;-64
2023/10/25 10:01:30;;;;;;;7.77;6.80;;;;;;;;;;4973715;28;20658;-64
2023/10/25 10:04:01;;;;;;;7.27;6.70;;;;;;;;;;4972991;28;20621;-64
2023/10/25 10:06:32;;;;;;;8.17;7.37;;;;;;;;;;4973719;28;20578;-64
2023/10/25 10:09:06;;;;;;;8.60;7.90;;;;;;;;;;4972448;28;21127;-64
2023/10/25 10:11:40;;;;;;;7.47;6.88;;;;;;;;;;4974063;28;20623;-64
2023/10/25 10:14:26;;;;;;;8.20;7.50;;;;;;;;;;4974473;28;20202;-63
2023/10/25 10:16:54;;;;;;;6.70;6.20;;;;;;;;;;4950634;28;20657;-65
2023/10/25 10:19:23;;;;;;;10.17;9.27;;;;;;;;;;4973929;28;20226;-65
2023/10/25 10:22:04;;;;;;;7.90;7.10;;;;;;;;;;4972839;28;20676;-63
2023/10/25 10:24:46;;;;;;;7.30;6.73;;;;;;;;;;4969535;28;20617;-63
2023/10/25 10:27:16;;;;;;;11.95;7.47;;;;;;;;;;4967575;28;20592;-63
2023/10/25 10:29:45;;;;;;;13.03;8.13;;;;;;;;;;4972852;28;20211;-64
2023/10/25 10:32:13;;;;;;;7.47;6.80;;;;;;;;;;4954481;29;20629;-64
2023/10/25 10:34:45;;;;;;;9.23;7.20;;;;;;;;;;4968467;28;20666;-64
2023/10/25 10:37:14;;;;;;;7.30;6.70;;;;;;;;;;4970548;28;20621;-64
2023/10/25 10:40:01;;;;;;;6.80;6.23;;;;;;;;;;4965808;28;20610;-64
2023/10/25 10:42:34;;;;;;;9.83;6.17;;;;;;;;;;4971695;28;20610;-64
2023/10/25 10:45:03;;;;;;;8.27;7.43;;;;;;;;;;4972339;28;20609;-64
2023/10/25 10:47:36;;;;;;;7.40;6.83;;;;;;;;;;4972277;28;20646;-64
2023/10/25 10:50:09;;;;;;;7.13;6.43;;;;;;;;;;4971980;28;20594;-64
2023/10/25 10:52:37;;;;;;;9.93;4.80;;;;;;;;;;4972185;28;20640;-64
2023/10/25 10:55:05;;;;;;;6.87;6.17;;;;;;;;;;4972118;28;20712;-63
2023/10/25 10:57:36;;;;;;;7.00;6.40;;;;;;;;;;4968124;28;20634;-65
2023/10/25 11:00:07;;;;;;;6.10;5.77;;;;;;;;;;4973206;28;20594;-64
2023/10/25 11:02:37;;;;;;;5.80;5.30;;;;;;;;;;4972609;28;20677;-65
2023/10/25 11:05:06;;;;;;;5.80;5.30;;;;;;;;;;4971762;28;20615;-64
2023/10/25 11:07:34;;;;;;;5.87;5.40;;;;;;;;;;4960191;28;20604;-64
2023/10/25 11:10:03;;;;;;;6.50;4.70;;;;;;;;;;4973076;28;20619;-65
2023/10/25 11:12:32;;;;;;;5.97;5.37;;;;;;;;;;4972850;28;20637;-64
2023/10/25 11:15:04;;;;;;;12.33;5.33;;;;;;;;;;4971801;28;20636;-64
2023/10/25 11:17:33;;;;;;;6.20;5.60;;;;;;;;;;4967776;28;21008;-64
2023/10/25 11:20:01;;;;;;;7.83;5.70;;;;;;;;;;4972894;28;20959;-65
2023/10/25 11:22:31;;;;;;;6.10;5.50;;;;;;;;;;4971869;28;20609;-65
2023/10/25 11:25:00;;;;;;;6.90;6.20;;;;;;;;;;4971135;28;20634;-65
2023/10/25 11:27:31;;;;;;;7.80;6.93;;;;;;;;;;4970261;28;20629;-65
2023/10/25 11:30:00;;;;;;;8.60;6.80;;;;;;;;;;4970364;28;20660;-64
2023/10/25 11:32:31;;;;;;;6.70;6.20;;;;;;;;;;4970838;28;20597;-64
2023/10/25 11:34:59;;;;;;;8.07;6.00;;;;;;;;;;4972608;28;21143;-63
2023/10/25 11:37:28;;;;;;;9.20;7.17;;;;;;;;;;4968124;28;20903;-64
2023/10/25 11:39:57;;;;;;;5.90;5.40;;;;;;;;;;4970941;28;20983;-65
2023/10/25 11:42:27;;;;;;;8.97;8.17;;;;;;;;;;4971560;28;20589;-65
2023/10/25 11:44:55;;;;;;;7.00;6.40;;;;;;;;;;4969991;28;21251;-64
2023/10/25 11:47:23;;;;;;;7.30;6.73;;;;;;;;;;4964785;28;20645;-65
2023/10/25 11:49:54;;;;;;;8.10;7.50;;;;;;;;;;4972545;28;20627;-65
2023/10/25 11:52:22;;;;;;;7.97;7.30;;;;;;;;;;4969327;28;20704;-64
2023/10/25 11:54:55;;;;;;;10.47;9.43;;;;;;;;;;4972084;28;20642;-65
2023/10/25 11:57:23;;;;;;;7.90;7.30;;;;;;;;;;4971997;28;20609;-65
2023/10/25 11:59:52;;;;;;;11.20;10.13;;;;;;;;;;4971545;28;20635;-65
2023/10/25 12:02:20;;;;;;;8.43;7.73;;;;;;;;;;4970662;28;20627;-65
2023/10/25 12:04:49;;;;;;;7.37;6.77;;;;;;;;;;4968303;28;20602;-64
2023/10/25 12:07:20;;;;;;;6.73;6.23;;;;;;;;;;4971873;28;21036;-64
2023/10/25 12:09:48;;;;;;;8.23;7.63;;;;;;;;;;4971180;28;20635;-65
2023/10/25 12:12:17;;;;;;;7.17;6.63;;;;;;;;;;4975154;28;21275;-64
2023/10/25 12:14:45;;;;;;;6.90;6.37;;;;;;;;;;4971748;28;20627;-65
2023/10/25 12:17:13;;;;;;;6.93;6.40;;;;;;;;;;4974956;28;20670;-65
2023/10/25 12:19:42;;;;;;;9.77;8.87;;;;;;;;;;4976001;28;20631;-65
2023/10/25 12:22:12;;;;;;;8.47;7.60;;;;;;;;;;4964841;28;20648;-64
2023/10/25 12:24:43;;;;;;;7.40;6.70;;;;;;;;;;4973772;28;20676;-64
2023/10/25 12:27:12;;;;;;;7.87;7.00;;;;;;;;;;4976530;28;20583;-64
2023/10/25 12:29:40;;;;;;;6.60;6.00;;;;;;;;;;4975105;28;20626;-65
2023/10/25 12:32:09;;;;;;;8.70;7.10;;;;;;;;;;4976571;28;20634;-65
2023/10/25 12:34:37;;;;;;;7.30;6.63;;;;;;;;;;4975516;28;20647;-65
2023/10/25 12:37:05;;;;;;;7.20;6.53;;;;;;;;;;4974763;28;20656;-64
2023/10/25 12:39:35;;;;;;;7.07;6.43;;;;;;;;;;4975999;28;20969;-64
2023/10/25 12:42:04;;;;;;;7.50;6.83;;;;;;;;;;4976864;28;20615;-65
2023/10/25 12:44:32;;;;;;;6.73;6.23;;;;;;;;;;4973333;28;20646;-64
2023/10/25 12:47:03;;;;;;;6.33;5.73;;;;;;;;;;4976034;28;20665;-64
2023/10/25 12:49:31;;;;;;;7.67;6.37;;;;;;;;;;4974416;28;20638;-65
2023/10/25 12:52:02;;;;;;;5.77;5.37;;;;;;;;;;4975365;28;20639;-64
2023/10/25 12:54:30;;;;;;;4.87;4.47;;;;;;;;;;4965070;28;20606;-65
2023/10/25 12:56:58;;;;;;;4.67;4.37;;;;;;;;;;4969980;28;20659;-64
2023/10/25 12:59:28;;;;;;;6.97;4.87;;;;;;;;;;4971965;28;20630;-64
2023/10/25 13:01:56;;;;;;;5.63;4.33;;;;;;;;;;4971317;28;20638;-64
2023/10/25 13:04:24;;;;;;;4.63;4.33;;;;;;;;;;4969514;28;20627;-64
2023/10/25 13:06:52;;;;;;;5.33;4.83;;;;;;;;;;4970809;28;20622;-64
2023/10/25 13:09:21;;;;;;;5.73;5.13;;;;;;;;;;4966376;28;20622;-64
2023/10/25 13:11:49;;;;;;;5.10;4.70;;;;;;;;;;4969399;28;21316;-64
2023/10/25 13:14:18;;;;;;;5.87;5.27;;;;;;;;;;4962085;28;20638;-64
2023/10/25 13:16:48;;;;;;;5.60;5.03;;;;;;;;;;4972199;28;20991;-64
2023/10/25 13:19:16;;;;;;;4.77;4.37;;;;;;;;;;4973287;28;20697;-64
2023/10/25 13:21:45;;;;;;;4.73;4.33;;;;;;;;;;4972234;28;21209;-64
2023/10/25 13:24:13;;;;;;;4.90;4.50;;;;;;;;;;4969726;28;20611;-64
2023/10/25 13:26:41;;;;;;;4.60;4.30;;;;;;;;;;4973058;28;20608;-64
2023/10/25 13:29:09;;;;;;;5.60;5.20;;;;;;;;;;4974114;28;20593;-64
2023/10/25 13:31:38;;;;;;;4.80;4.50;;;;;;;;;;4974712;28;20637;-64
2023/10/25 13:34:07;;;;;;;5.57;5.03;;;;;;;;;;4968185;28;20653;-65
2023/10/25 13:36:36;;;;;;;5.33;4.93;;;;;;;;;;4974372;28;20692;-65
2023/10/25 13:39:07;;;;;;;6.17;4.90;;;;;;;;;;4972824;28;20630;-64
2023/10/25 13:41:35;;;;;;;5.10;4.80;;;;;;;;;;4966109;28;21152;-64
2023/10/25 13:44:03;;;;;;;6.20;5.60;;;;;;;;;;4966567;28;20662;-64
2023/10/25 13:46:31;;;;;;;5.63;5.13;;;;;;;;;;4966692;28;20950;-65
2023/10/25 13:49:00;;;;;;;6.60;6.00;;;;;;;;;;4965451;28;20638;-64
2023/10/25 13:51:29;;;;;;;6.30;5.53;;;;;;;;;;4973311;28;20635;-64
2023/10/25 13:53:57;;;;;;;5.90;5.47;;;;;;;;;;4960163;28;20612;-64
2023/10/25 13:56:26;;;;;;;5.93;5.43;;;;;;;;;;4973837;28;20669;-64
2023/10/25 13:58:55;;;;;;;5.50;5.00;;;;;;;;;;4972790;28;20590;-64
2023/10/25 14:01:23;;;;;;;6.23;5.80;;;;;;;;;;4972385;28;20948;-64
2023/10/25 14:03:52;;;;;;;5.90;5.33;;;;;;;;;;4967691;28;20631;-64
2023/10/25 14:06:20;;;;;;;5.33;4.80;;;;;;;;;;4971305;28;20632;-64
2023/10/25 14:08:49;;;;;;;8.83;5.30;;;;;;;;;;4971306;28;20661;-64
2023/10/25 14:11:18;;;;;;;4.97;4.50;;;;;;;;;;4972807;28;20619;-64
2023/10/25 14:13:50;;;;;;;5.43;5.03;;;;;;;;;;4973448;28;20615;-64
2023/10/25 14:16:18;;;;;;;4.87;4.40;;;;;;;;;;4968777;28;20656;-65
2023/10/25 14:18:46;;;;;;;7.73;4.80;;;;;;;;;;4960937;28;20631;-64
2023/10/25 14:21:14;;;;;;;5.23;4.80;;;;;;;;;;4972459;28;21226;-64
2023/10/25 14:23:43;;;;;;;4.67;4.37;;;;;;;;;;4971918;28;20655;-64
2023/10/25 14:26:12;;;;;;;6.03;4.57;;;;;;;;;;4971524;28;21253;-64
2023/10/25 14:28:40;;;;;;;4.80;4.40;;;;;;;;;;4960444;28;20647;-64
2023/10/25 14:31:14;;;;;;;5.13;4.67;;;;;;;;;;4970382;28;21039;-64
2023/10/25 14:33:42;;;;;;;5.00;4.70;;;;;;;;;;4971002;28;21099;-64
2023/10/25 14:36:13;;;;;;;10.97;9.00;;;;;;;;;;4970447;28;20604;-64
2023/10/25 14:38:41;;;;;;;12.53;9.30;;;;;;;;;;4971593;28;20617;-64